Time;durP1;ratioP1;P1;durP2;ratioP2;P2;SDS_P1;SDS_P2;PMS_P1;PMS_P2;Temp;Humidity;BMP_temperature;BMP_pressure;BME280_temperature;BME280_humidity;BME280_pressure;Samples;Min_cycle;Max_cycle;Signal;HPM_P1;HPM_P2
2023/02/20 00:01:26;;;;;;;6.22;3.45;;;7.80;84.80;;;;;;5042289;28;20025;-65
2023/02/20 00:03:52;;;;;;;3.38;2.75;;;7.80;84.80;;;;;;5044982;28;20021;-65
2023/02/20 00:06:17;;;;;;;6.35;2.72;;;7.80;84.80;;;;;;5042193;28;20036;-65
2023/02/20 00:08:43;;;;;;;3.85;3.35;;;7.80;84.70;;;;;;5041278;28;20529;-60
2023/02/20 00:11:09;;;;;;;5.70;3.33;;;7.80;84.70;;;;;;5041514;28;20024;-59
2023/02/20 00:13:34;;;;;;;6.25;4.30;;;7.80;84.70;;;;;;5049226;28;20084;-61
2023/02/20 00:16:00;;;;;;;6.40;3.47;;;7.90;84.70;;;;;;5058559;28;20028;-60
2023/02/20 00:18:26;;;;;;;7.35;4.38;;;7.90;84.60;;;;;;5048484;28;20029;-60
2023/02/20 00:20:52;;;;;;;8.18;3.40;;;7.90;84.60;;;;;;5048356;28;20086;-59
2023/02/20 00:23:17;;;;;;;6.82;4.20;;;7.90;84.60;;;;;;5047991;28;20033;-59
2023/02/20 00:25:43;;;;;;;5.78;3.75;;;7.90;84.60;;;;;;5044282;28;20025;-59
2023/02/20 00:28:09;;;;;;;6.43;3.42;;;7.90;84.70;;;;;;5047111;28;20059;-59
2023/02/20 00:30:34;;;;;;;4.93;3.55;;;7.90;84.60;;;;;;5048773;28;20087;-63
2023/02/20 00:33:00;;;;;;;8.80;4.88;;;7.90;84.60;;;;;;5046799;28;20025;-63
2023/02/20 00:35:26;;;;;;;7.78;3.75;;;7.90;84.50;;;;;;5044963;28;20107;-63
2023/02/20 00:37:53;;;;;;;5.50;3.78;;;8.00;84.50;;;;;;5042047;28;20021;-58
2023/02/20 00:40:21;;;;;;;4.85;3.47;;;8.00;84.40;;;;;;5042061;28;20071;-58
2023/02/20 00:42:48;;;;;;;6.95;3.35;;;8.00;84.30;;;;;;5042827;28;20021;-59
2023/02/20 00:45:15;;;;;;;7.65;5.05;;;8.10;84.30;;;;;;5043544;28;20040;-63
2023/02/20 00:47:40;;;;;;;6.10;4.47;;;8.10;84.20;;;;;;5048372;28;20052;-59
2023/02/20 00:50:08;;;;;;;7.60;4.05;;;8.10;84.20;;;;;;5047766;28;20383;-63
2023/02/20 00:52:35;;;;;;;5.88;4.18;;;8.10;84.20;;;;;;5038006;28;20049;-60
2023/02/20 00:55:00;;;;;;;9.73;4.68;;;8.10;84.30;;;;;;5048608;28;20076;-59
2023/02/20 00:57:26;;;;;;;7.40;4.63;;;8.10;84.10;;;;;;5043856;28;20052;-59
2023/02/20 00:59:52;;;;;;;6.35;4.38;;;8.10;84.10;;;;;;5046803;28;20495;-59
2023/02/20 01:02:17;;;;;;;4.80;4.13;;;8.10;84.10;;;;;;5043517;28;20026;-59
2023/02/20 01:04:43;;;;;;;5.43;4.30;;;8.20;84.10;;;;;;5037669;28;20032;-63
2023/02/20 01:07:09;;;;;;;6.82;3.80;;;8.10;84.00;;;;;;5043636;28;20076;-59
2023/02/20 01:09:35;;;;;;;7.40;5.03;;;8.20;84.00;;;;;;5047188;28;20033;-59
2023/02/20 01:12:00;;;;;;;5.38;3.38;;;8.20;83.90;;;;;;5037247;28;20483;-64
2023/02/20 01:14:26;;;;;;;6.28;3.97;;;8.10;84.00;;;;;;5041922;28;20029;-64
2023/02/20 01:16:53;;;;;;;4.88;3.58;;;8.10;83.90;;;;;;5041357;28;20680;-64
2023/02/20 01:19:22;;;;;;;10.20;4.82;;;8.10;84.00;;;;;;5043365;28;20029;-60
2023/02/20 01:21:49;;;;;;;9.20;4.97;;;8.10;84.10;;;;;;5039320;28;20465;-61
2023/02/20 01:24:15;;;;;;;7.80;4.25;;;8.10;84.10;;;;;;5042649;28;20028;-60
2023/02/20 01:26:46;;;;;;;6.20;3.55;;;8.00;84.10;;;;;;5040030;28;20052;-60
2023/02/20 01:29:11;;;;;;;5.95;3.47;;;8.00;84.20;;;;;;5040382;28;20104;-63
2023/02/20 01:31:37;;;;;;;7.80;4.18;;;8.00;84.30;;;;;;5046413;28;20116;-64
2023/02/20 01:34:03;;;;;;;5.93;3.60;;;8.00;84.20;;;;;;5050544;28;20045;-64
2023/02/20 01:36:29;;;;;;;3.38;3.08;;;8.00;84.20;;;;;;5045670;28;20036;-63
2023/02/20 01:38:55;;;;;;;7.82;4.18;;;8.00;84.20;;;;;;5051117;28;20387;-63
2023/02/20 01:41:22;;;;;;;7.43;3.95;;;8.00;84.40;;;;;;5051059;28;20017;-59
2023/02/20 01:43:48;;;;;;;7.72;3.75;;;8.00;84.40;;;;;;5065663;28;20473;-63
2023/02/20 01:46:27;;;;;;;4.47;3.55;;;8.00;84.40;;;;;;5051904;28;20459;-64
2023/02/20 01:49:10;;;;;;;10.63;3.80;;;8.00;84.50;;;;;;5050348;28;20029;-64
2023/02/20 01:51:43;;;;;;;6.13;3.75;;;8.00;84.40;;;;;;5052103;28;20123;-64
2023/02/20 01:54:10;;;;;;;;;;;8.00;84.50;;;;;;5080811;28;20036;-64
2023/02/20 01:56:37;;;;;;;8.00;4.05;;;8.00;84.60;;;;;;5050843;28;19913;-64
2023/02/20 01:59:05;;;;;;;5.50;2.92;;;7.90;84.70;;;;;;5051583;28;20037;-64
2023/02/20 02:01:32;;;;;;;6.68;3.35;;;8.00;84.60;;;;;;5050551;28;20023;-64
2023/02/20 02:04:03;;;;;;;4.43;3.42;;;8.00;84.50;;;;;;5049672;28;20086;-64
2023/02/20 02:06:30;;;;;;;6.45;3.10;;;8.00;84.50;;;;;;5051663;28;20013;-64
2023/02/20 02:09:00;;;;;;;5.50;3.88;;;8.00;84.30;;;;;;5050964;28;20040;-64
2023/02/20 02:11:26;;;;;;;7.35;3.85;;;8.10;84.40;;;;;;5047422;28;20466;-64
2023/02/20 02:13:52;;;;;;;5.32;3.70;;;8.00;84.30;;;;;;5049966;28;20040;-64
2023/02/20 02:16:46;;;;;;;4.53;3.30;;;8.00;84.30;;;;;;5046810;28;20476;-64
2023/02/20 02:19:20;;;;;;;6.47;3.83;;;8.00;84.40;;;;;;5049801;28;20017;-64
2023/02/20 02:22:20;;;;;;;5.85;3.90;;;8.00;84.50;;;;;;5050877;28;20036;-64
2023/02/20 02:25:20;;;;;;;7.03;4.00;;;8.00;84.60;;;;;;5050566;28;20064;-65
2023/02/20 02:28:07;;;;;;;4.28;3.25;;;8.00;84.70;;;;;;5040992;28;20033;-63
2023/02/20 02:30:41;;;;;;;6.28;3.30;;;7.90;84.60;;;;;;5048591;28;20021;-64
2023/02/20 02:33:25;;;;;;;5.90;3.78;;;8.00;84.60;;;;;;5040970;28;20037;-59
2023/02/20 02:36:19;;;;;;;9.10;3.63;;;8.00;84.60;;;;;;5045253;28;20059;-64
2023/02/20 02:39:14;;;;;;;8.38;3.47;;;8.00;84.60;;;;;;5049999;28;20036;-60
2023/02/20 02:41:52;;;;;;;7.03;3.70;;;8.00;84.70;;;;;;5044372;28;20376;-60
2023/02/20 02:44:21;;;;;;;12.95;3.90;;;8.00;84.80;;;;;;5050478;28;20735;-60
2023/02/20 02:46:55;;;;;;;6.93;4.57;;;8.10;84.90;;;;;;5050152;28;20033;-60
2023/02/20 02:49:42;;;;;;;7.03;4.75;;;8.10;85.00;;;;;;5045351;28;20048;-65
2023/02/20 02:52:10;;;;;;;13.00;4.45;;;8.10;84.90;;;;;;5046229;28;20070;-59
2023/02/20 02:54:36;;;;;;;9.68;4.60;;;8.10;85.00;;;;;;5057558;28;20041;-60
2023/02/20 02:57:21;;;;;;;8.35;4.53;;;8.10;85.00;;;;;;5043117;28;20047;-60
2023/02/20 02:59:51;;;;;;;10.82;4.57;;;8.20;85.00;;;;;;5048225;28;20072;-60
2023/02/20 03:02:18;;;;;;;8.70;5.03;;;8.10;85.10;;;;;;5043625;28;20024;-60
2023/02/20 03:04:49;;;;;;;12.95;6.10;;;8.20;85.20;;;;;;5050412;28;20029;-60
2023/02/20 03:07:16;;;;;;;10.40;5.47;;;8.20;85.40;;;;;;5046129;28;20060;-59
2023/02/20 03:09:47;;;;;;;17.15;6.80;;;8.10;85.50;;;;;;5047555;28;20025;-64
2023/02/20 03:12:14;;;;;;;10.68;6.35;;;8.10;85.60;;;;;;5042269;28;20060;-63
2023/02/20 03:17:57;;;;;;;11.48;6.05;;;8.10;86.00;;;;;;5040525;28;20530;-64
2023/02/20 03:20:22;;;;;;;10.15;6.28;;;8.10;85.90;;;;;;5033710;28;20045;-59
2023/02/20 03:23:02;;;;;;;18.38;6.05;;;8.10;86.00;;;;;;5036169;28;20070;-64
2023/02/20 03:25:34;;;;;;;14.18;7.70;;;8.10;86.20;;;;;;5043073;28;20041;-60
2023/02/20 03:28:01;;;;;;;11.82;8.32;;;8.10;86.30;;;;;;5039692;28;20385;-61
2023/02/20 03:30:37;;;;;;;10.55;6.68;;;8.10;86.40;;;;;;5065363;28;20029;-63
2023/02/20 03:44:56;;;;;;;13.18;8.45;;;8.10;86.90;;;;;;5049818;28;20123;-64
2023/02/20 03:47:25;;;;;;;20.42;8.65;;;8.10;86.80;;;;;;5048862;28;20136;-64
2023/02/20 03:49:53;;;;;;;15.77;9.85;;;8.20;86.80;;;;;;5048679;28;20055;-65
2023/02/20 03:52:19;;;;;;;13.20;8.70;;;8.20;87.00;;;;;;5047845;28;20033;-65
2023/02/20 03:54:45;;;;;;;14.23;8.55;;;8.10;87.10;;;;;;5049538;28;20029;-64
2023/02/20 03:57:16;;;;;;;15.25;8.60;;;8.20;87.10;;;;;;5048904;28;20028;-64
2023/02/20 03:59:54;;;;;;;19.55;9.15;;;8.20;87.10;;;;;;5045387;28;20388;-64
2023/02/20 04:02:33;;;;;;;19.77;9.93;;;8.20;87.10;;;;;;5042718;28;20029;-64
2023/02/20 04:05:04;;;;;;;14.90;10.05;;;8.20;87.10;;;;;;5049382;28;20033;-64
2023/02/20 04:07:47;;;;;;;16.10;9.63;;;8.20;87.20;;;;;;5046093;28;20132;-64
2023/02/20 04:10:17;;;;;;;18.35;9.63;;;8.20;87.30;;;;;;5048434;28;20029;-64
2023/02/20 04:12:45;;;;;;;19.27;9.30;;;8.30;87.40;;;;;;5046430;28;20116;-64
2023/02/20 04:15:12;;;;;;;20.88;9.98;;;8.20;87.50;;;;;;5049249;28;20033;-64
2023/02/20 04:17:45;;;;;;;13.18;8.45;;;8.30;87.70;;;;;;5047139;28;20384;-60
2023/02/20 04:20:11;;;;;;;15.40;8.85;;;8.30;87.70;;;;;;5048813;28;20021;-61
2023/02/20 04:22:41;;;;;;;16.00;9.68;;;8.30;87.70;;;;;;5064082;28;20506;-62
2023/02/20 04:25:24;;;;;;;17.00;9.75;;;8.40;87.80;;;;;;5048396;28;20021;-62
2023/02/20 04:27:51;;;;;;;19.73;8.35;;;8.40;87.70;;;;;;5048446;28;20025;-59
2023/02/20 04:30:16;;;;;;;21.50;9.55;;;8.40;87.70;;;;;;5042301;28;20037;-59
2023/02/20 04:32:43;;;;;;;17.27;9.32;;;8.40;87.70;;;;;;5046661;28;20564;-58
2023/02/20 04:35:16;;;;;;;17.70;9.73;;;8.40;87.90;;;;;;5045055;28;20108;-60
2023/02/20 04:37:42;;;;;;;17.17;9.95;;;8.50;88.10;;;;;;5079575;28;20086;-64
2023/02/20 04:40:09;;;;;;;19.95;10.02;;;8.40;88.10;;;;;;5041762;28;20034;-58
2023/02/20 04:42:36;;;;;;;13.50;9.32;;;8.50;88.90;;;;;;5040939;28;20396;-60
2023/02/20 04:45:01;;;;;;;19.17;10.10;;;8.40;88.60;;;;;;5049248;28;20037;-61
2023/02/20 04:47:27;;;;;;;15.02;9.98;;;8.50;88.40;;;;;;5062371;28;20045;-60
2023/02/20 04:49:52;;;;;;;22.27;9.80;;;8.50;88.40;;;;;;5047782;28;20078;-60
2023/02/20 04:52:18;;;;;;;17.20;11.25;;;8.50;88.40;;;;;;5047505;28;20074;-60
2023/02/20 04:54:44;;;;;;;27.40;9.23;;;8.50;88.40;;;;;;5048713;28;20104;-60
2023/02/20 04:57:09;;;;;;;16.00;9.45;;;8.50;88.50;;;;;;5047910;28;20024;-64
2023/02/20 04:59:35;;;;;;;21.95;11.10;;;8.50;88.40;;;;;;5048039;28;20033;-60
2023/02/20 05:02:01;;;;;;;17.92;9.95;;;8.50;88.40;;;;;;5047102;28;20407;-59
2023/02/20 05:04:27;;;;;;;15.25;9.35;;;8.50;88.50;;;;;;5034432;28;20036;-60
2023/02/20 05:06:54;;;;;;;20.88;9.23;;;8.60;88.50;;;;;;5038027;28;20025;-59
2023/02/20 05:09:21;;;;;;;22.60;10.75;;;8.60;88.40;;;;;;5045770;28;20036;-59
2023/02/20 05:11:47;;;;;;;17.85;10.65;;;8.60;88.50;;;;;;5051215;28;20045;-60
2023/02/20 05:14:13;;;;;;;22.85;10.90;;;8.60;88.60;;;;;;5046713;28;20033;-59
2023/02/20 05:16:40;;;;;;;21.30;11.25;;;8.60;88.60;;;;;;5044396;28;20021;-60
2023/02/20 05:19:07;;;;;;;14.73;9.35;;;8.60;88.70;;;;;;5050169;28;20107;-60
2023/02/20 05:24:18;;;;;;;19.35;10.32;;;8.60;88.60;;;;;;5047626;28;20040;-59
2023/02/20 05:26:44;;;;;;;21.15;9.27;;;8.60;88.60;;;;;;5045002;28;20032;-60
2023/02/20 05:29:11;;;;;;;20.85;10.85;;;8.60;88.70;;;;;;5051445;28;20029;-64
2023/02/20 05:31:40;;;;;;;15.57;8.55;;;8.60;88.60;;;;;;5050089;28;20069;-64
2023/02/20 05:34:06;;;;;;;20.58;10.90;;;8.70;88.60;;;;;;5049237;28;20416;-64
2023/02/20 05:36:32;;;;;;;15.50;8.73;;;8.70;88.60;;;;;;5051884;28;20036;-64
2023/02/20 05:38:58;;;;;;;17.02;8.70;;;8.70;88.50;;;;;;5045479;28;20021;-60
2023/02/20 05:41:24;;;;;;;19.98;8.68;;;8.70;88.50;;;;;;5046608;28;20040;-59
2023/02/20 05:43:49;;;;;;;14.15;7.38;;;8.80;88.40;;;;;;5045192;28;20029;-64
2023/02/20 05:46:16;;;;;;;18.25;9.20;;;8.80;88.30;;;;;;5045833;28;20451;-64
2023/02/20 05:48:42;;;;;;;14.50;8.60;;;8.80;88.60;;;;;;5044044;28;20033;-63
2023/02/20 05:51:07;;;;;;;20.02;8.32;;;8.80;88.20;;;;;;5051044;28;20050;-64
2023/02/20 05:53:33;;;;;;;18.45;7.60;;;8.80;88.30;;;;;;5051000;28;20025;-64
2023/02/20 05:55:59;;;;;;;15.10;7.38;;;8.80;88.20;;;;;;5052353;28;20116;-64
2023/02/20 05:58:25;;;;;;;15.32;9.00;;;8.80;88.20;;;;;;5050354;28;20395;-64
2023/02/20 06:00:51;;;;;;;17.60;8.48;;;8.80;88.20;;;;;;5049139;28;20025;-59
2023/02/20 06:03:17;;;;;;;12.98;7.15;;;8.90;88.20;;;;;;5065997;28;20024;-59
2023/02/20 06:05:43;;;;;;;16.77;7.93;;;8.90;88.00;;;;;;5052025;28;20021;-60
2023/02/20 06:08:09;;;;;;;12.20;7.45;;;8.90;87.90;;;;;;5049002;28;20091;-60
2023/02/20 06:10:35;;;;;;;18.27;8.57;;;8.90;87.80;;;;;;5082739;28;20021;-60
2023/02/20 06:13:01;;;;;;;16.48;7.90;;;8.90;87.80;;;;;;5050502;28;20448;-64
2023/02/20 06:15:26;;;;;;;8.77;6.43;;;8.90;87.80;;;;;;5050713;28;20392;-64
2023/02/20 06:17:52;;;;;;;14.20;7.07;;;9.00;87.80;;;;;;5049262;28;20025;-60
2023/02/20 06:20:19;;;;;;;16.13;7.15;;;9.00;87.70;;;;;;5050626;28;20029;-60
2023/02/20 06:22:47;;;;;;;21.55;7.63;;;9.00;87.70;;;;;;5050780;28;20468;-60
2023/02/20 06:25:13;;;;;;;14.20;7.15;;;9.00;87.60;;;;;;5051163;28;20021;-60
2023/02/20 06:27:39;;;;;;;18.83;7.15;;;9.10;87.60;;;;;;5050890;28;20028;-60
2023/02/20 06:30:05;;;;;;;14.60;8.00;;;9.10;87.40;;;;;;5050523;28;20029;-60
2023/02/20 06:32:31;;;;;;;14.00;7.40;;;9.10;87.40;;;;;;5050684;28;20135;-60
2023/02/20 06:34:56;;;;;;;13.13;7.25;;;9.10;87.50;;;;;;5050865;28;20112;-59
2023/02/20 06:37:22;;;;;;;15.27;7.30;;;9.10;87.50;;;;;;5050339;28;20040;-60
2023/02/20 06:39:48;;;;;;;20.52;8.82;;;9.20;87.40;;;;;;5050892;28;20071;-64
2023/02/20 06:42:14;;;;;;;18.88;7.53;;;9.20;87.40;;;;;;5045861;28;20025;-64
2023/02/20 06:44:40;;;;;;;18.70;7.82;;;9.20;87.30;;;;;;5048486;28;20106;-64
2023/02/20 06:47:07;;;;;;;14.52;6.65;;;9.20;87.30;;;;;;5046311;28;20103;-63
2023/02/20 06:49:37;;;;;;;12.73;7.10;;;9.20;87.20;;;;;;5047335;28;20025;-64
2023/02/20 06:52:04;;;;;;;12.40;7.07;;;9.20;87.20;;;;;;5045264;28;20045;-64
2023/02/20 06:54:29;;;;;;;14.30;6.80;;;9.20;87.30;;;;;;5049205;28;20037;-59
2023/02/20 06:56:55;;;;;;;13.93;6.95;;;9.30;87.20;;;;;;5048670;28;20045;-59
2023/02/20 06:59:22;;;;;;;13.60;8.75;;;9.30;87.10;;;;;;5048598;28;20068;-59
2023/02/20 07:01:48;;;;;;;27.80;8.35;;;9.30;87.10;;;;;;5049870;28;20048;-60
2023/02/20 07:04:17;;;;;;;12.75;7.13;;;9.30;87.00;;;;;;5050166;28;20123;-60
2023/02/20 07:06:42;;;;;;;14.95;7.63;;;9.30;87.10;;;;;;5050409;28;20024;-60
2023/02/20 07:09:08;;;;;;;13.35;8.00;;;9.40;87.00;;;;;;5048113;28;20055;-60
2023/02/20 07:11:34;;;;;;;16.20;7.22;;;9.40;86.90;;;;;;5049148;28;20020;-60
2023/02/20 07:13:59;;;;;;;16.70;7.80;;;9.30;86.90;;;;;;5047858;28;20044;-61
2023/02/20 07:16:25;;;;;;;9.30;6.05;;;9.40;87.00;;;;;;5048720;28;20120;-60
2023/02/20 07:18:51;;;;;;;16.15;7.50;;;9.40;86.80;;;;;;5045254;28;20033;-60
2023/02/20 07:21:16;;;;;;;14.80;8.10;;;9.40;87.40;;;;;;5049889;28;20024;-60
2023/02/20 07:23:44;;;;;;;13.23;6.82;;;9.40;86.80;;;;;;5049269;28;20495;-60
2023/02/20 07:26:27;;;;;;;15.63;7.88;;;9.40;86.80;;;;;;5050302;28;20021;-60
2023/02/20 07:28:54;;;;;;;10.57;6.50;;;9.40;86.60;;;;;;5047571;28;20037;-60
2023/02/20 07:31:19;;;;;;;17.90;6.85;;;9.40;86.80;;;;;;5048406;28;20036;-60
2023/02/20 07:33:45;;;;;;;22.52;7.45;;;9.40;86.80;;;;;;5048827;28;20029;-62
2023/02/20 07:36:13;;;;;;;13.50;6.75;;;9.40;86.70;;;;;;5049253;28;20117;-63
2023/02/20 07:38:39;;;;;;;9.80;5.68;;;9.40;86.80;;;;;;5046893;28;20040;-61
2023/02/20 07:41:05;;;;;;;15.23;7.90;;;9.40;86.70;;;;;;5048521;28;20033;-62
2023/02/20 07:43:31;;;;;;;18.05;7.72;;;9.40;86.70;;;;;;5049311;28;20483;-62
2023/02/20 07:45:58;;;;;;;15.10;7.85;;;9.40;86.60;;;;;;5044008;28;20091;-61
2023/02/20 07:48:41;;;;;;;17.70;8.50;;;9.50;86.60;;;;;;5038221;28;20021;-64
2023/02/20 07:51:07;;;;;;;26.15;9.02;;;9.50;86.20;;;;;;5046393;28;20108;-65
2023/02/20 07:53:32;;;;;;;15.57;8.35;;;9.50;86.50;;;;;;5071669;28;20413;-63
2023/02/20 07:55:58;;;;;;;14.10;8.65;;;9.50;86.50;;;;;;5036625;28;20497;-64
2023/02/20 07:58:24;;;;;;;21.23;8.95;;;9.50;86.50;;;;;;5040023;28;20689;-65
2023/02/20 08:00:50;;;;;;;18.50;8.43;;;9.50;86.50;;;;;;5036405;28;20476;-65
2023/02/20 08:03:16;;;;;;;15.93;7.40;;;9.50;86.50;;;;;;5031720;28;20033;-64
2023/02/20 08:05:43;;;;;;;19.75;9.00;;;9.50;86.50;;;;;;5036182;28;20032;-64
2023/02/20 08:08:09;;;;;;;21.63;9.30;;;9.50;86.60;;;;;;5035656;28;20025;-65
2023/02/20 08:10:35;;;;;;;15.50;7.35;;;9.60;86.60;;;;;;5041427;28;20124;-64
2023/02/20 08:13:01;;;;;;;18.15;7.82;;;9.60;86.60;;;;;;5040618;28;20427;-65
2023/02/20 08:15:27;;;;;;;18.27;9.02;;;9.60;86.50;;;;;;5039190;28;20109;-65
2023/02/20 08:17:53;;;;;;;26.77;8.25;;;9.60;86.70;;;;;;5048981;28;20026;-65
2023/02/20 08:20:20;;;;;;;14.68;7.72;;;9.60;86.70;;;;;;5045803;28;20040;-65
2023/02/20 08:22:47;;;;;;;13.88;7.25;;;9.60;86.60;;;;;;5042009;28;20120;-65
2023/02/20 08:25:14;;;;;;;16.33;8.15;;;9.60;86.60;;;;;;5043072;28;20052;-65
2023/02/20 08:27:46;;;;;;;15.75;8.07;;;9.70;86.50;;;;;;5042476;28;20039;-65
2023/02/20 08:30:22;;;;;;;;;;;9.80;86.50;;;;;;5045627;28;20029;-64
2023/02/20 08:32:50;;;;;;;15.85;9.20;;;9.70;86.30;;;;;;5044996;28;19963;-65
2023/02/20 08:35:16;;;;;;;18.30;8.23;;;9.70;86.50;;;;;;5046582;28;20057;-66
2023/02/20 08:37:41;;;;;;;17.52;8.07;;;9.70;86.50;;;;;;5040269;28;20048;-66
2023/02/20 08:40:08;;;;;;;13.50;8.50;;;9.70;86.50;;;;;;5044988;28;20091;-65
2023/02/20 08:42:34;;;;;;;13.63;7.00;;;9.70;86.70;;;;;;5043109;28;20390;-65
2023/02/20 08:45:05;;;;;;;13.10;7.93;;;9.80;86.60;;;;;;5047480;28;20037;-66
2023/02/20 08:47:32;;;;;;;19.33;8.80;;;9.80;86.50;;;;;;5046973;28;20041;-66
2023/02/20 08:49:58;;;;;;;11.57;7.57;;;9.80;86.50;;;;;;5041185;28;20048;-65
2023/02/20 08:52:24;;;;;;;11.57;7.10;;;9.80;87.00;;;;;;5040022;28;20443;-65
2023/02/20 08:54:49;;;;;;;17.00;7.32;;;9.90;86.30;;;;;;5045933;28;20132;-64
2023/02/20 08:57:16;;;;;;;14.32;7.05;;;9.90;86.20;;;;;;5047318;28;20123;-64
2023/02/20 08:59:42;;;;;;;14.18;7.03;;;9.90;86.10;;;;;;5043404;28;20049;-65
2023/02/20 09:02:16;;;;;;;13.05;6.72;;;9.90;86.20;;;;;;5043350;28;20040;-64
2023/02/20 09:04:44;;;;;;;13.65;6.78;;;9.90;86.90;;;;;;5038861;28;20427;-63
2023/02/20 09:07:10;;;;;;;11.48;6.13;;;9.90;86.40;;;;;;5037255;28;20029;-65
2023/02/20 09:09:35;;;;;;;14.38;7.85;;;9.90;86.30;;;;;;5042479;28;20025;-65
2023/02/20 09:12:01;;;;;;;13.27;6.90;;;10.00;86.30;;;;;;5041598;28;20060;-65
2023/02/20 09:14:26;;;;;;;16.27;7.45;;;10.00;86.20;;;;;;5045899;28;20033;-65
2023/02/20 09:16:52;;;;;;;16.52;6.75;;;10.00;86.20;;;;;;5047034;28;20044;-64
2023/02/20 09:19:20;;;;;;;18.02;6.15;;;10.00;86.10;;;;;;5044247;28;20029;-65
2023/02/20 09:21:46;;;;;;;16.95;6.82;;;10.00;86.20;;;;;;5040850;28;20033;-65
2023/02/20 09:24:12;;;;;;;13.48;6.97;;;10.10;86.20;;;;;;5041663;28;20036;-65
2023/02/20 09:26:37;;;;;;;19.75;6.47;;;10.00;86.30;;;;;;5047187;28;20025;-64
2023/02/20 09:29:03;;;;;;;12.93;6.90;;;10.00;86.40;;;;;;5072342;28;20116;-64
2023/02/20 09:31:29;;;;;;;19.50;5.80;;;10.00;86.50;;;;;;5046584;28;20072;-64
2023/02/20 09:33:55;;;;;;;13.40;5.70;;;10.00;86.50;;;;;;5038614;28;20033;-65
2023/02/20 09:36:20;;;;;;;15.60;5.47;;;10.00;86.70;;;;;;5045248;28;20064;-64
2023/02/20 09:38:46;;;;;;;18.45;5.20;;;10.10;86.60;;;;;;5042650;28;20466;-65
2023/02/20 09:41:29;;;;;;;12.43;5.32;;;10.10;86.50;;;;;;5041313;28;20052;-64
2023/02/20 09:44:11;;;;;;;10.63;5.18;;;10.10;86.60;;;;;;5044157;28;20112;-60
2023/02/20 09:46:38;;;;;;;10.50;4.68;;;10.10;86.50;;;;;;5040870;28;20045;-61
2023/02/20 09:49:14;;;;;;;7.60;4.90;;;10.20;86.50;;;;;;5039230;28;20103;-61
2023/02/20 09:51:55;;;;;;;11.73;5.57;;;10.20;86.40;;;;;;5046897;28;20091;-62
2023/02/20 09:54:31;;;;;;;14.88;5.07;;;10.20;86.40;;;;;;5036931;28;20464;-61
2023/02/20 09:57:00;;;;;;;11.13;5.00;;;10.20;86.40;;;;;;5049442;28;20447;-61
2023/02/20 09:59:31;;;;;;;8.43;4.13;;;10.20;86.30;;;;;;5046214;28;20416;-61
2023/02/20 10:02:03;;;;;;;13.90;5.55;;;10.20;86.30;;;;;;5044633;28;20428;-61
2023/02/20 10:04:42;;;;;;;10.32;5.65;;;10.20;86.20;;;;;;5039389;28;20021;-64
2023/02/20 10:07:36;;;;;;;10.95;5.40;;;10.20;86.40;;;;;;5039926;28;20610;-65
2023/02/20 10:10:16;;;;;;;11.82;4.85;;;10.20;86.50;;;;;;5046748;28;20040;-61
2023/02/20 10:13:27;;;;;;;10.48;4.63;;;10.20;86.60;;;;;;5043054;28;20029;-60
2023/02/20 10:16:06;;;;;;;14.55;5.50;;;10.30;86.50;;;;;;5043306;28;20033;-58
2023/02/20 10:18:49;;;;;;;10.45;4.57;;;10.20;86.50;;;;;;5037592;28;20108;-58
2023/02/20 10:21:32;;;;;;;12.98;4.68;;;10.20;86.50;;;;;;5038103;28;20356;-58
2023/02/20 10:24:19;;;;;;;10.30;4.40;;;10.20;86.60;;;;;;5036980;28;20029;-64
2023/02/20 10:26:51;;;;;;;13.88;4.65;;;10.20;86.70;;;;;;5044675;28;20097;-58
2023/02/20 10:29:24;;;;;;;8.83;4.40;;;10.20;87.20;;;;;;5044166;28;20484;-59
2023/02/20 10:32:12;;;;;;;7.88;3.38;;;10.20;86.60;;;;;;5047288;28;20104;-58
2023/02/20 10:35:17;;;;;;;6.68;3.33;;;10.20;86.50;;;;;;5046652;28;20534;-59
2023/02/20 10:37:47;;;;;;;8.20;3.08;;;10.20;86.60;;;;;;5042160;28;20510;-64
2023/02/20 10:40:32;;;;;;;11.88;2.97;;;10.20;86.90;;;;;;5050217;28;20163;-59
2023/02/20 10:43:21;;;;;;;14.52;3.05;;;10.20;86.70;;;;;;5044147;28;20029;-59
2023/02/20 10:45:57;;;;;;;8.88;2.95;;;10.20;87.30;;;;;;5044846;28;20029;-64
2023/02/20 10:48:27;;;;;;;9.98;4.03;;;10.30;86.70;;;;;;5047206;28;20488;-64
2023/02/20 10:51:08;;;;;;;4.78;2.92;;;10.30;86.60;;;;;;5042850;28;20492;-64
2023/02/20 10:53:47;;;;;;;10.65;4.10;;;10.40;86.50;;;;;;5042402;28;20084;-63
2023/02/20 10:56:25;;;;;;;10.20;3.67;;;10.40;86.30;;;;;;5039531;28;20024;-64
2023/02/20 10:59:09;;;;;;;11.80;4.55;;;10.50;86.20;;;;;;5047950;28;20361;-63
2023/02/20 11:01:37;;;;;;;8.60;3.88;;;10.40;86.20;;;;;;5040797;28;20024;-57
2023/02/20 11:04:19;;;;;;;8.45;3.58;;;10.40;86.40;;;;;;5064556;28;20037;-58
2023/02/20 11:06:46;;;;;;;12.10;4.45;;;10.40;86.20;;;;;;5044694;28;20090;-59
2023/02/20 11:09:12;;;;;;;11.65;4.55;;;10.40;86.30;;;;;;5049273;28;20029;-59
2023/02/20 11:11:43;;;;;;;10.23;5.28;;;10.40;86.30;;;;;;5045504;28;20193;-59
2023/02/20 11:14:35;;;;;;;16.97;4.13;;;10.40;86.40;;;;;;5044338;28;20162;-59
2023/02/20 11:17:13;;;;;;;10.35;3.30;;;10.40;86.30;;;;;;5042185;28;20553;-65
2023/02/20 11:19:52;;;;;;;8.27;3.38;;;10.50;86.30;;;;;;5045098;28;20029;-63
2023/02/20 11:22:42;;;;;;;11.65;4.50;;;10.50;86.20;;;;;;5047241;28;20446;-62
2023/02/20 11:25:29;;;;;;;18.95;4.32;;;10.50;86.00;;;;;;5043850;28;20432;-58
2023/02/20 11:27:59;;;;;;;9.82;2.78;;;10.50;86.00;;;;;;5044144;28;20032;-58
2023/02/20 11:30:32;;;;;;;8.48;3.80;;;10.50;86.10;;;;;;5038407;28;20055;-59
2023/02/20 11:33:03;;;;;;;6.43;3.00;;;10.50;86.00;;;;;;5044005;28;20025;-63
2023/02/20 11:35:36;;;;;;;6.78;2.67;;;10.50;86.00;;;;;;5038853;28;20461;-63
2023/02/20 11:38:15;;;;;;;9.02;2.45;;;10.60;86.00;;;;;;5047484;28;20029;-58
2023/02/20 11:40:44;;;;;;;8.77;3.08;;;10.70;85.90;;;;;;5046143;28;20025;-59
2023/02/20 11:43:31;;;;;;;5.13;3.13;;;10.70;85.70;;;;;;5046227;28;20037;-59
2023/02/20 11:46:17;;;;;;;7.70;3.40;;;10.70;85.40;;;;;;5043426;28;20076;-59
2023/02/20 11:49:04;;;;;;;10.15;3.30;;;10.60;85.40;;;;;;5046540;28;20037;-59
2023/02/20 11:51:30;;;;;;;2.55;1.90;;;10.60;85.60;;;;;;5036130;28;20029;-59
2023/02/20 11:54:28;;;;;;;7.88;2.30;;;10.50;86.10;;;;;;5046285;28;20057;-59
2023/02/20 11:57:08;;;;;;;10.55;2.70;;;10.50;85.50;;;;;;5044220;28;20108;-63
2023/02/20 11:59:42;;;;;;;7.03;2.75;;;10.50;85.50;;;;;;5035871;28;20029;-65
2023/02/20 12:02:16;;;;;;;4.90;2.58;;;10.50;85.50;;;;;;5036174;28;20016;-59
2023/02/20 12:04:44;;;;;;;4.38;2.78;;;10.50;85.50;;;;;;5037697;28;20037;-59
2023/02/20 12:07:24;;;;;;;5.82;2.40;;;10.50;85.50;;;;;;5045111;28;20361;-58
2023/02/20 12:09:53;;;;;;;6.10;2.92;;;10.60;85.50;;;;;;5046964;28;20055;-59
2023/02/20 12:12:22;;;;;;;4.45;2.40;;;10.60;85.60;;;;;;5033716;28;20032;-64
2023/02/20 12:14:49;;;;;;;4.75;2.35;;;10.60;85.30;;;;;;5048318;28;20025;-63
2023/02/20 12:17:29;;;;;;;4.47;2.10;;;10.60;85.20;;;;;;5044044;28;20025;-63
2023/02/20 12:20:17;;;;;;;6.63;2.03;;;10.60;85.40;;;;;;5043662;28;20025;-59
2023/02/20 12:23:10;;;;;;;13.80;2.60;;;10.70;85.20;;;;;;5045787;28;20384;-59
2023/02/20 12:26:04;;;;;;;2.92;2.08;;;10.70;85.30;;;;;;5046987;28;20013;-59
2023/02/20 12:28:36;;;;;;;5.85;2.50;;;10.70;84.90;;;;;;5044175;28;20112;-59
2023/02/20 12:31:14;;;;;;;3.33;2.50;;;10.70;85.20;;;;;;5034594;28;20120;-60
2023/02/20 12:33:47;;;;;;;4.93;2.50;;;10.70;85.10;;;;;;5040698;28;20064;-59
2023/02/20 12:36:39;;;;;;;8.90;2.40;;;10.70;85.00;;;;;;5036066;28;20423;-64
2023/02/20 12:39:32;;;;;;;3.78;2.05;;;10.80;85.00;;;;;;5058992;28;20027;-60
2023/02/20 12:42:16;;;;;;;3.13;1.92;;;10.70;84.90;;;;;;5036503;28;20043;-59
2023/02/20 12:44:48;;;;;;;3.38;2.28;;;10.70;85.00;;;;;;5037162;28;20040;-63
2023/02/20 12:47:42;;;;;;;1.60;1.50;;;10.70;85.10;;;;;;5035244;28;20196;-63
2023/02/20 12:50:17;;;;;;;5.30;1.98;;;10.80;84.90;;;;;;5036368;28;20040;-64
2023/02/20 12:53:06;;;;;;;3.47;1.67;;;10.80;84.90;;;;;;5036749;28;20832;-64
2023/02/20 12:55:39;;;;;;;2.67;1.77;;;10.90;84.80;;;;;;5046865;28;20029;-63
2023/02/20 12:58:07;;;;;;;5.32;2.45;;;10.80;85.20;;;;;;5041630;28;20108;-63
2023/02/20 13:00:57;;;;;;;4.13;1.33;;;10.90;84.60;;;;;;5044385;28;20035;-58
2023/02/20 13:03:48;;;;;;;2.95;1.77;;;10.90;84.40;;;;;;5043935;28;20029;-58
2023/02/20 13:06:32;;;;;;;2.53;1.73;;;11.00;84.40;;;;;;5008379;28;20487;-62
2023/02/20 13:09:24;;;;;;;2.58;1.55;;;10.90;84.40;;;;;;5042724;28;20412;-63
2023/02/20 13:11:55;;;;;;;1.27;1.17;;;11.00;84.40;;;;;;5079026;28;20056;-63
2023/02/20 13:14:45;;;;;;;3.67;1.63;;;11.00;84.30;;;;;;5041185;28;20435;-63
2023/02/20 13:17:38;;;;;;;3.50;1.88;;;11.00;84.20;;;;;;5038761;28;20025;-64
2023/02/20 13:20:09;;;;;;;4.45;1.83;;;11.00;84.30;;;;;;5040834;28;20532;-60
2023/02/20 13:22:35;;;;;;;2.63;1.77;;;11.10;84.20;;;;;;5046247;28;20017;-60
2023/02/20 13:25:40;;;;;;;2.97;1.73;;;11.00;84.00;;;;;;5043340;28;20032;-57
2023/02/20 13:28:35;;;;;;;3.55;1.90;;;11.00;83.90;;;;;;5017718;28;20025;-59